Time;durP1;ratioP1;P1;durP2;ratioP2;P2;SDS_P1;SDS_P2;PMS_P1;PMS_P2;Temp;Humidity;BMP_temperature;BMP_pressure;BME280_temperature;BME280_humidity;BME280_pressure;Samples;Min_cycle;Max_cycle;Signal;HPM_P1;HPM_P2
2022/04/25 00:01:15;;;;;;;39.85;27.52;;;8.50;99.90;;;;;;5024493;28;20045;-73
2022/04/25 00:03:41;;;;;;;44.30;27.58;;;8.40;99.90;;;;;;5025633;28;20152;-72
2022/04/25 00:06:07;;;;;;;47.78;28.60;;;8.30;99.90;;;;;;5026200;28;20136;-72
2022/04/25 00:08:32;;;;;;;50.70;30.05;;;8.20;99.90;;;;;;5027692;28;20817;-71
2022/04/25 00:10:58;;;;;;;42.90;29.02;;;8.20;99.90;;;;;;5025884;28;20068;-71
2022/04/25 00:13:24;;;;;;;43.85;29.70;;;8.20;99.90;;;;;;5025902;28;20050;-72
2022/04/25 00:15:50;;;;;;;50.47;30.00;;;8.20;99.90;;;;;;5025773;28;20115;-72
2022/04/25 00:18:15;;;;;;;50.85;32.70;;;8.20;99.90;;;;;;5026224;28;20060;-71
2022/04/25 00:20:41;;;;;;;56.90;34.10;;;8.20;99.90;;;;;;5026943;28;21827;-71
2022/04/25 00:23:07;;;;;;;54.95;32.60;;;8.20;99.90;;;;;;5027747;28;20112;-72
2022/04/25 00:25:34;;;;;;;46.00;33.28;;;8.10;99.90;;;;;;5028334;28;20710;-71
2022/04/25 00:28:01;;;;;;;58.25;33.10;;;8.10;99.90;;;;;;5027977;28;20502;-71
2022/04/25 00:30:28;;;;;;;48.17;31.85;;;8.10;99.90;;;;;;5026691;28;20491;-71
2022/04/25 00:32:55;;;;;;;60.40;33.08;;;8.10;99.90;;;;;;5026624;28;20049;-71
2022/04/25 00:35:21;;;;;;;50.25;30.30;;;8.10;99.90;;;;;;5027106;28;20470;-71
2022/04/25 00:37:47;;;;;;;50.72;30.35;;;8.00;99.90;;;;;;5025781;28;20033;-72
2022/04/25 00:40:15;;;;;;;44.42;29.98;;;8.00;99.90;;;;;;5025532;28;20820;-73
2022/04/25 00:42:41;;;;;;;47.00;31.30;;;8.00;99.90;;;;;;5024317;28;20124;-72
2022/04/25 00:45:09;;;;;;;55.60;32.00;;;8.00;99.90;;;;;;5025697;28;20542;-72
2022/04/25 00:47:36;;;;;;;55.58;33.17;;;8.00;99.90;;;;;;5025064;28;20120;-72
2022/04/25 00:50:02;;;;;;;54.22;32.55;;;8.00;99.90;;;;;;5023430;28;20600;-72
2022/04/25 00:52:27;;;;;;;45.58;31.08;;;8.00;99.90;;;;;;5024120;28;20048;-72
2022/04/25 00:54:53;;;;;;;51.47;34.63;;;8.00;99.90;;;;;;5025433;28;20049;-72
2022/04/25 00:57:20;;;;;;;48.22;33.92;;;8.00;99.90;;;;;;5027238;28;20052;-72
2022/04/25 00:59:47;;;;;;;46.45;33.30;;;8.00;99.90;;;;;;5006968;28;20038;-72
2022/04/25 01:02:13;;;;;;;53.85;33.75;;;8.00;99.90;;;;;;5021336;28;20053;-73
2022/04/25 01:04:38;;;;;;;59.45;37.30;;;8.00;99.90;;;;;;5026068;28;20422;-72
2022/04/25 01:07:04;;;;;;;43.88;32.90;;;8.00;99.90;;;;;;5024947;28;20045;-72
2022/04/25 01:09:30;;;;;;;54.30;36.28;;;8.00;99.90;;;;;;5025360;28;20062;-72
2022/04/25 01:11:58;;;;;;;49.63;34.55;;;8.00;99.90;;;;;;5023643;28;20053;-72
2022/04/25 01:14:24;;;;;;;58.42;34.85;;;8.00;99.90;;;;;;5025321;28;20157;-72
2022/04/25 01:16:49;;;;;;;55.15;35.95;;;8.10;99.90;;;;;;5026553;28;20132;-72
2022/04/25 01:19:15;;;;;;;56.55;35.72;;;8.00;99.90;;;;;;5025187;28;20049;-72
2022/04/25 01:21:49;;;;;;;49.08;32.67;;;7.90;99.90;;;;;;5024593;28;20046;-72
2022/04/25 01:27:15;;;;;;;56.40;35.03;;;7.80;99.90;;;;;;5019274;28;20399;-72
2022/04/25 01:29:42;;;;;;;50.17;33.40;;;7.70;99.90;;;;;;5025135;28;20051;-72
2022/04/25 01:32:08;;;;;;;58.50;34.60;;;7.80;99.90;;;;;;5025721;28;20041;-73
2022/04/25 01:34:37;;;;;;;49.22;33.30;;;7.80;99.90;;;;;;5027064;28;20421;-72
2022/04/25 01:37:05;;;;;;;;;;;7.70;99.90;;;;;;5025499;28;20052;-72
2022/04/25 01:39:31;;;;;;;49.75;33.40;;;7.60;99.90;;;;;;5019971;28;20333;-72
2022/04/25 01:41:57;;;;;;;55.08;36.08;;;7.60;99.90;;;;;;5038703;28;20133;-72
2022/04/25 01:44:22;;;;;;;55.75;32.47;;;7.50;99.90;;;;;;5026500;28;20133;-72
2022/04/25 01:46:48;;;;;;;57.33;34.25;;;7.40;99.90;;;;;;5042089;28;20417;-73
2022/04/25 01:49:13;;;;;;;51.92;33.22;;;7.40;99.90;;;;;;5025455;28;20050;-72
2022/04/25 01:51:39;;;;;;;52.97;33.63;;;7.20;99.90;;;;;;5009425;28;20052;-73
2022/04/25 01:54:05;;;;;;;50.20;33.10;;;7.20;99.90;;;;;;5024944;28;20042;-73
2022/04/25 01:56:32;;;;;;;47.13;32.65;;;7.10;99.90;;;;;;5025180;28;20041;-72
2022/04/25 01:58:58;;;;;;;44.15;29.85;;;7.00;99.90;;;;;;5025634;28;20476;-73
2022/04/25 02:01:23;;;;;;;48.67;30.83;;;7.00;99.90;;;;;;5027887;28;20029;-73
2022/04/25 02:03:49;;;;;;;59.65;31.38;;;6.90;99.90;;;;;;5021234;28;20453;-73
2022/04/25 02:06:15;;;;;;;42.03;27.60;;;6.90;99.90;;;;;;5023216;28;20449;-73
2022/04/25 02:08:40;;;;;;;45.83;29.40;;;6.90;99.90;;;;;;5027135;28;20103;-73
2022/04/25 02:11:22;;;;;;;51.97;30.70;;;6.80;99.90;;;;;;5027270;28;20054;-73
2022/04/25 02:13:52;;;;;;;46.45;30.15;;;6.80;99.90;;;;;;5028199;28;20057;-73
2022/04/25 02:16:19;;;;;;;47.58;31.92;;;6.80;99.90;;;;;;5027772;28;20047;-73
2022/04/25 02:18:45;;;;;;;45.35;29.38;;;6.80;99.90;;;;;;5028707;28;20050;-73
2022/04/25 02:21:10;;;;;;;49.70;29.30;;;6.80;99.90;;;;;;5028054;28;20046;-73
2022/04/25 02:23:38;;;;;;;45.05;30.88;;;6.90;99.90;;;;;;5027932;28;20100;-73
2022/04/25 02:26:05;;;;;;;41.70;28.17;;;6.90;99.90;;;;;;5027801;28;20090;-73
2022/04/25 02:28:31;;;;;;;44.38;29.80;;;6.90;99.90;;;;;;5029419;28;20072;-73
2022/04/25 02:30:58;;;;;;;50.13;29.40;;;7.00;99.90;;;;;;5027137;28;20596;-73
2022/04/25 02:33:24;;;;;;;47.47;30.70;;;7.00;99.90;;;;;;5019958;28;20045;-73
2022/04/25 02:35:50;;;;;;;44.05;28.75;;;7.10;99.90;;;;;;5028002;28;20048;-73
2022/04/25 02:38:16;;;;;;;45.95;30.02;;;7.10;99.90;;;;;;5029184;28;20162;-72
2022/04/25 02:40:41;;;;;;;49.83;29.80;;;7.10;99.90;;;;;;5027801;28;20128;-72
2022/04/25 02:43:07;;;;;;;44.50;30.55;;;7.10;99.90;;;;;;5026141;28;20081;-73
2022/04/25 02:45:35;;;;;;;51.55;30.88;;;7.10;99.90;;;;;;5028328;28;20152;-73
2022/04/25 02:48:01;;;;;;;48.83;29.40;;;7.10;99.90;;;;;;5028007;28;20095;-73
2022/04/25 02:50:26;;;;;;;48.85;29.55;;;7.00;99.90;;;;;;5028298;28;20111;-73
2022/04/25 02:52:53;;;;;;;42.40;28.77;;;7.10;99.90;;;;;;5027017;28;20057;-73
2022/04/25 02:55:20;;;;;;;47.03;30.02;;;7.10;99.90;;;;;;5027856;28;20116;-73
2022/04/25 02:57:46;;;;;;;55.40;32.50;;;7.10;99.90;;;;;;5027691;28;20053;-73
2022/04/25 03:00:13;;;;;;;51.30;29.33;;;7.10;99.90;;;;;;5027406;28;20128;-73
2022/04/25 03:02:39;;;;;;;50.85;30.52;;;7.10;99.90;;;;;;5022442;28;20561;-73
2022/04/25 03:05:05;;;;;;;45.83;28.33;;;7.10;99.90;;;;;;5032346;28;20037;-73
2022/04/25 03:07:31;;;;;;;47.63;29.52;;;7.10;99.90;;;;;;5025967;28;20038;-73
2022/04/25 03:09:58;;;;;;;45.45;28.85;;;7.10;99.90;;;;;;5024020;28;20124;-73
2022/04/25 03:12:23;;;;;;;48.65;27.95;;;7.10;99.90;;;;;;5033107;28;20053;-73
2022/04/25 03:14:49;;;;;;;46.72;28.83;;;7.10;99.90;;;;;;5026584;28;20124;-73
2022/04/25 03:17:15;;;;;;;45.70;29.80;;;7.10;99.90;;;;;;5020597;28;20103;-73
2022/04/25 03:19:41;;;;;;;47.10;28.70;;;7.10;99.90;;;;;;5026832;28;20037;-73
2022/04/25 03:22:06;;;;;;;42.70;27.13;;;7.10;99.90;;;;;;5028062;28;20469;-73
2022/04/25 03:24:32;;;;;;;48.10;29.27;;;7.10;99.90;;;;;;5026737;28;20049;-73
2022/04/25 03:26:58;;;;;;;44.03;26.83;;;7.10;99.90;;;;;;5029521;28;20506;-73
2022/04/25 03:29:24;;;;;;;46.97;30.67;;;7.00;99.90;;;;;;5028074;28;20495;-73
2022/04/25 03:31:49;;;;;;;52.17;29.55;;;7.00;99.90;;;;;;5027766;28;20096;-73
2022/04/25 03:34:15;;;;;;;45.58;27.50;;;7.00;99.90;;;;;;5027562;28;20467;-73
2022/04/25 03:36:51;;;;;;;47.95;28.73;;;7.00;99.90;;;;;;5027443;28;20037;-73
2022/04/25 03:39:18;;;;;;;44.33;29.20;;;7.00;99.90;;;;;;5025427;28;20037;-73
2022/04/25 03:41:43;;;;;;;46.63;27.15;;;7.00;99.90;;;;;;5023790;28;20136;-73
2022/04/25 03:44:09;;;;;;;42.15;27.90;;;7.00;99.90;;;;;;5024032;28;20132;-74
2022/04/25 03:46:35;;;;;;;46.28;30.15;;;7.00;99.90;;;;;;5026724;28;20045;-73
2022/04/25 03:49:03;;;;;;;47.85;28.63;;;7.00;99.90;;;;;;5027430;28;20123;-73
2022/04/25 03:51:29;;;;;;;44.35;27.45;;;7.00;99.90;;;;;;5026449;28;20076;-73
2022/04/25 03:53:55;;;;;;;45.35;28.27;;;7.00;99.90;;;;;;5024345;28;20517;-73
2022/04/25 03:59:05;;;;;;;45.25;28.70;;;7.00;99.90;;;;;;5022850;28;20053;-73
2022/04/25 04:01:31;;;;;;;44.78;28.30;;;7.00;99.90;;;;;;5023400;28;20502;-74
2022/04/25 04:04:04;;;;;;;46.95;28.02;;;7.00;99.90;;;;;;5023291;28;20132;-73
2022/04/25 04:06:30;;;;;;;45.75;30.50;;;7.00;99.90;;;;;;5025881;28;20045;-74
2022/04/25 04:08:55;;;;;;;51.13;30.10;;;7.00;99.90;;;;;;5025291;28;20068;-74
2022/04/25 04:11:21;;;;;;;53.67;28.65;;;7.10;99.90;;;;;;5024139;28;20050;-74
2022/04/25 04:13:47;;;;;;;43.53;28.85;;;7.10;99.90;;;;;;5026208;28;20525;-74
2022/04/25 04:16:13;;;;;;;48.50;29.02;;;7.10;99.90;;;;;;5024278;28;20525;-74
2022/04/25 04:18:41;;;;;;;46.15;27.08;;;7.10;99.90;;;;;;5024517;28;20053;-74
2022/04/25 04:21:09;;;;;;;34.63;26.13;;;7.10;99.90;;;;;;5023963;28;20140;-73
2022/04/25 04:23:35;;;;;;;46.45;27.08;;;7.10;99.90;;;;;;5029339;28;20053;-74
2022/04/25 04:26:01;;;;;;;45.65;29.02;;;7.10;99.90;;;;;;5025356;28;20064;-77
2022/04/25 04:28:27;;;;;;;52.85;30.45;;;7.10;99.90;;;;;;5024309;28;20048;-77
2022/04/25 04:30:52;;;;;;;42.70;28.38;;;7.10;99.90;;;;;;5025581;28;20037;-78
2022/04/25 04:33:23;;;;;;;52.95;30.40;;;7.20;99.90;;;;;;5027934;28;20391;-78
2022/04/25 04:38:33;;;;;;;35.45;26.65;;;7.20;99.90;;;;;;5022281;28;20052;-76
2022/04/25 04:40:59;;;;;;;40.75;26.00;;;7.20;99.90;;;;;;5021728;28;20041;-76
2022/04/25 04:43:24;;;;;;;43.20;26.80;;;7.20;99.90;;;;;;5024794;28;20056;-76
2022/04/25 04:45:50;;;;;;;35.60;24.40;;;7.20;99.90;;;;;;5024100;28;20106;-75
2022/04/25 04:48:15;;;;;;;40.45;26.02;;;7.20;99.90;;;;;;5024704;28;20089;-75
2022/04/25 04:50:41;;;;;;;41.72;26.30;;;7.20;99.90;;;;;;5025785;28;20124;-75
2022/04/25 04:53:07;;;;;;;35.53;23.35;;;7.20;99.90;;;;;;5024336;28;20033;-75
2022/04/25 04:55:35;;;;;;;37.20;24.63;;;7.20;99.90;;;;;;5033728;28;20048;-75
2022/04/25 04:58:00;;;;;;;43.85;23.80;;;7.20;99.90;;;;;;5025954;28;20045;-75
2022/04/25 05:00:27;;;;;;;40.90;25.50;;;7.20;99.90;;;;;;5021829;28;20045;-75
2022/04/25 05:02:52;;;;;;;33.40;23.25;;;7.20;99.90;;;;;;5025734;28;20045;-75
2022/04/25 05:05:18;;;;;;;37.83;24.25;;;7.20;99.90;;;;;;5027016;28;20072;-75
2022/04/25 05:07:44;;;;;;;40.83;24.15;;;7.20;99.90;;;;;;5042228;28;20060;-75
2022/04/25 05:10:10;;;;;;;38.25;24.23;;;7.30;99.90;;;;;;5024224;28;20054;-75
2022/04/25 05:13:03;;;;;;;40.20;25.40;;;7.30;99.90;;;;;;5026490;28;20586;-75
2022/04/25 05:15:30;;;;;;;30.08;21.38;;;7.30;99.90;;;;;;5025116;28;20096;-75
2022/04/25 05:17:56;;;;;;;30.33;22.80;;;7.20;99.90;;;;;;5026279;28;20103;-75
2022/04/25 05:20:23;;;;;;;38.55;22.73;;;7.30;99.90;;;;;;5025754;28;20132;-75
2022/04/25 05:22:50;;;;;;;41.63;25.05;;;7.30;99.90;;;;;;5021317;28;20054;-76
2022/04/25 05:25:21;;;;;;;48.08;23.33;;;7.30;99.90;;;;;;5026242;28;20171;-75
2022/04/25 05:27:49;;;;;;;36.92;23.85;;;7.30;99.90;;;;;;5026434;28;20058;-75
2022/04/25 05:30:16;;;;;;;37.40;24.27;;;7.30;99.90;;;;;;5011698;28;20049;-75
2022/04/25 05:32:44;;;;;;;36.05;25.05;;;7.30;99.90;;;;;;5025744;28;20053;-75
2022/04/25 05:35:10;;;;;;;44.13;25.17;;;7.30;99.90;;;;;;5027845;28;20038;-75
2022/04/25 05:37:36;;;;;;;35.40;24.17;;;7.30;99.90;;;;;;5027880;28;20406;-75
2022/04/25 05:40:02;;;;;;;44.97;27.33;;;7.30;99.90;;;;;;5026778;28;20124;-75
2022/04/25 05:42:28;;;;;;;45.60;27.67;;;7.40;99.90;;;;;;5022522;28;20133;-76
2022/04/25 05:44:54;;;;;;;44.55;26.02;;;7.30;99.90;;;;;;5025555;28;20050;-76
2022/04/25 05:47:19;;;;;;;36.47;26.17;;;7.40;99.90;;;;;;5031609;28;20058;-76
2022/04/25 05:52:29;;;;;;;44.13;26.02;;;7.50;99.90;;;;;;5022889;28;20072;-76
2022/04/25 05:54:55;;;;;;;39.78;24.90;;;7.50;99.90;;;;;;5030260;28;20042;-77
2022/04/25 05:57:22;;;;;;;45.00;26.55;;;7.60;99.90;;;;;;5045526;28;20060;-76
2022/04/25 05:59:48;;;;;;;41.33;26.88;;;7.60;99.90;;;;;;5029897;28;20061;-77
2022/04/25 06:02:16;;;;;;;47.10;28.13;;;7.70;99.90;;;;;;5029807;28;20052;-76
2022/04/25 06:04:42;;;;;;;35.10;25.83;;;7.70;99.90;;;;;;5030382;28;20111;-73
2022/04/25 06:07:08;;;;;;;44.40;27.40;;;7.70;99.90;;;;;;5028950;28;20430;-74
2022/04/25 06:09:34;;;;;;;37.40;26.98;;;7.70;99.90;;;;;;5029314;28;20053;-74
2022/04/25 06:12:02;;;;;;;42.75;26.60;;;7.70;99.90;;;;;;5029195;28;20478;-75
2022/04/25 06:14:31;;;;;;;44.70;28.45;;;7.70;99.90;;;;;;5010632;28;20052;-74
2022/04/25 06:16:59;;;;;;;37.25;24.13;;;7.70;99.90;;;;;;5009337;28;20048;-74
2022/04/25 06:19:24;;;;;;;47.58;27.52;;;7.70;99.90;;;;;;5025367;28;20665;-74
2022/04/25 06:21:50;;;;;;;39.80;29.23;;;7.70;99.90;;;;;;5020931;28;20045;-74
2022/04/25 06:24:16;;;;;;;39.95;26.98;;;7.60;99.90;;;;;;5027505;28;20046;-74
2022/04/25 06:26:42;;;;;;;45.90;27.17;;;7.70;99.90;;;;;;5028988;28;20069;-74
2022/04/25 06:29:07;;;;;;;41.70;27.40;;;7.60;99.90;;;;;;5021702;28;20775;-75
2022/04/25 06:31:33;;;;;;;43.72;27.45;;;7.60;99.90;;;;;;5026493;28;20046;-75
2022/04/25 06:33:59;;;;;;;37.22;26.52;;;7.60;99.90;;;;;;5027572;28;20573;-74
2022/04/25 06:36:25;;;;;;;34.55;23.08;;;7.60;99.90;;;;;;5023690;28;20046;-73
2022/04/25 06:38:51;;;;;;;44.45;25.88;;;7.50;99.90;;;;;;5027338;28;20136;-74
2022/04/25 06:41:17;;;;;;;31.88;21.50;;;7.50;99.90;;;;;;5027940;28;20426;-73
2022/04/25 06:43:43;;;;;;;39.45;21.77;;;7.50;99.90;;;;;;5028759;28;20108;-73
2022/04/25 06:46:09;;;;;;;36.13;23.27;;;7.50;99.90;;;;;;5029237;28;20052;-75
2022/04/25 06:48:35;;;;;;;44.25;21.85;;;7.50;99.90;;;;;;5026140;28;20486;-74
2022/04/25 06:51:01;;;;;;;37.42;23.13;;;7.50;99.90;;;;;;5026304;28;20059;-74
2022/04/25 06:53:27;;;;;;;37.63;21.23;;;7.50;99.90;;;;;;5026978;28;20368;-73
2022/04/25 06:55:53;;;;;;;35.33;23.10;;;7.50;99.90;;;;;;5024266;28;20041;-67
2022/04/25 06:58:18;;;;;;;27.58;20.50;;;7.40;99.90;;;;;;5029927;28;20099;-67
2022/04/25 07:00:46;;;;;;;32.72;23.38;;;7.40;99.90;;;;;;5026799;28;20054;-67
2022/04/25 07:03:12;;;;;;;34.40;24.73;;;7.40;99.90;;;;;;5027932;28;20869;-67
2022/04/25 07:05:37;;;;;;;34.65;23.45;;;7.30;99.90;;;;;;5028909;28;20510;-68
2022/04/25 07:08:03;;;;;;;29.90;22.48;;;7.30;99.90;;;;;;5028921;28;20049;-67
2022/04/25 07:10:29;;;;;;;34.78;22.85;;;7.30;99.90;;;;;;5029194;28;20055;-67
2022/04/25 07:12:56;;;;;;;28.83;21.75;;;7.30;99.90;;;;;;5027232;28;20057;-67
2022/04/25 07:15:23;;;;;;;50.20;25.60;;;7.30;99.90;;;;;;5008740;28;20128;-68
2022/04/25 07:17:54;;;;;;;36.75;25.08;;;7.30;99.90;;;;;;5029095;28;20049;-68
2022/04/25 07:20:21;;;;;;;30.70;23.45;;;7.30;99.90;;;;;;5025252;28;20414;-68
2022/04/25 07:31:00;;;;;;;36.28;24.30;;;7.40;99.90;;;;;;5027736;28;20050;-71
2022/04/25 07:33:26;;;;;;;44.63;27.08;;;7.40;99.90;;;;;;5026451;28;20095;-71
2022/04/25 07:35:53;;;;;;;36.63;25.45;;;7.40;99.90;;;;;;5019631;28;20056;-72
2022/04/25 07:38:20;;;;;;;38.58;24.52;;;7.40;99.90;;;;;;5028582;28;20061;-72
2022/04/25 07:40:45;;;;;;;38.10;26.00;;;7.50;99.90;;;;;;5028861;28;20045;-72
2022/04/25 07:43:11;;;;;;;39.60;25.75;;;7.50;99.90;;;;;;5027238;28;20036;-72
2022/04/25 07:45:37;;;;;;;38.85;25.00;;;7.50;99.90;;;;;;5027379;28;20040;-72
2022/04/25 07:48:03;;;;;;;35.10;24.98;;;7.50;99.90;;;;;;5020167;28;20929;-72
2022/04/25 07:50:29;;;;;;;42.17;24.95;;;7.40;99.90;;;;;;5024087;28;20415;-72
2022/04/25 07:52:56;;;;;;;39.70;25.15;;;7.50;99.90;;;;;;5024954;28;20049;-72
2022/04/25 07:55:21;;;;;;;35.05;25.80;;;7.50;99.90;;;;;;5028561;28;20051;-71
2022/04/25 07:57:47;;;;;;;42.58;27.08;;;7.50;99.90;;;;;;5026845;28;20037;-73
2022/04/25 08:00:14;;;;;;;41.22;26.75;;;7.40;99.90;;;;;;5027719;28;20046;-71
2022/04/25 08:02:40;;;;;;;39.67;26.65;;;7.40;99.90;;;;;;5027839;28;20096;-72
2022/04/25 08:05:05;;;;;;;37.85;24.88;;;7.40;99.90;;;;;;5025850;28;20071;-72
2022/04/25 08:07:31;;;;;;;41.03;26.45;;;7.40;99.90;;;;;;5024302;28;20056;-71
2022/04/25 08:09:57;;;;;;;51.72;28.10;;;7.40;99.90;;;;;;5018238;28;20457;-72
2022/04/25 08:18:01;;;;;;;38.17;24.10;;;7.40;99.90;;;;;;5026658;28;20084;-70
2022/04/25 08:20:33;;;;;;;40.55;24.55;;;7.40;99.90;;;;;;5025976;28;20045;-71
2022/04/25 08:22:59;;;;;;;36.50;24.70;;;7.50;99.90;;;;;;5012006;28;20449;-72
2022/04/25 08:25:25;;;;;;;33.17;23.00;;;7.50;99.90;;;;;;5027322;28;20120;-71
2022/04/25 08:27:51;;;;;;;35.95;22.90;;;7.50;99.90;;;;;;5026362;28;20046;-71
2022/04/25 08:30:17;;;;;;;47.67;26.02;;;7.60;99.90;;;;;;5028399;28;20449;-71
2022/04/25 08:32:46;;;;;;;32.38;22.35;;;7.60;99.90;;;;;;5027364;28;20103;-71
2022/04/25 08:35:12;;;;;;;34.75;24.63;;;7.60;99.90;;;;;;5026490;28;20136;-71
2022/04/25 08:37:39;;;;;;;38.70;24.70;;;7.60;99.90;;;;;;5023689;28;20042;-71
2022/04/25 08:40:05;;;;;;;33.80;24.15;;;7.70;99.90;;;;;;5025477;28;20528;-70
2022/04/25 08:42:31;;;;;;;39.30;23.38;;;7.80;99.90;;;;;;5026269;28;20049;-72
2022/04/25 08:44:59;;;;;;;35.05;23.48;;;7.80;99.90;;;;;;5025147;28;20080;-72
2022/04/25 08:47:32;;;;;;;37.47;22.60;;;7.80;99.90;;;;;;5024600;28;20449;-74
2022/04/25 08:49:58;;;;;;;36.70;22.63;;;7.90;99.90;;;;;;5024130;28;20506;-72
2022/04/25 08:52:28;;;;;;;31.17;20.00;;;7.90;99.90;;;;;;5028055;28;20068;-72
2022/04/25 08:54:57;;;;;;;35.80;20.10;;;7.80;99.90;;;;;;5025825;28;20105;-73
2022/04/25 08:57:27;;;;;;;35.92;18.83;;;7.80;99.90;;;;;;5024773;28;20125;-73
2022/04/25 08:59:55;;;;;;;28.73;20.10;;;7.80;99.90;;;;;;5022488;28;20183;-67
2022/04/25 09:02:22;;;;;;;29.08;18.83;;;7.80;99.90;;;;;;5020492;28;20049;-67
2022/04/25 09:04:49;;;;;;;36.22;21.95;;;7.80;99.90;;;;;;5005771;28;20046;-67
2022/04/25 09:07:16;;;;;;;31.48;21.98;;;7.80;99.90;;;;;;5014745;28;20056;-67
2022/04/25 09:09:42;;;;;;;33.65;22.95;;;8.00;99.90;;;;;;5027086;28;20085;-67
2022/04/25 09:12:09;;;;;;;29.08;21.02;;;8.10;99.90;;;;;;5026416;28;20041;-67
2022/04/25 09:14:40;;;;;;;35.13;23.38;;;8.10;99.90;;;;;;5026261;28;20057;-67
2022/04/25 09:17:06;;;;;;;38.97;24.05;;;8.00;99.90;;;;;;5028888;28;20045;-67
2022/04/25 09:19:33;;;;;;;41.70;22.38;;;8.00;99.90;;;;;;5029541;28;20053;-67
2022/04/25 09:21:59;;;;;;;34.90;20.55;;;7.90;99.90;;;;;;5029650;28;20490;-67
2022/04/25 09:24:28;;;;;;;31.83;22.35;;;7.80;99.90;;;;;;5036575;28;20032;-67
2022/04/25 09:27:09;;;;;;;36.08;22.10;;;7.80;99.90;;;;;;5050827;28;20128;-67
2022/04/25 09:29:36;;;;;;;32.58;21.60;;;7.70;99.90;;;;;;5051441;28;20561;-68
2022/04/25 09:32:06;;;;;;;40.25;21.83;;;7.70;99.90;;;;;;5046615;28;20041;-67
2022/04/25 09:37:17;;;;;;;34.40;21.33;;;7.70;99.90;;;;;;5030662;28;20049;-67
2022/04/25 09:39:44;;;;;;;39.35;22.80;;;7.70;99.90;;;;;;5031003;28;20509;-67
2022/04/25 09:42:10;;;;;;;31.70;21.00;;;7.80;99.90;;;;;;5031219;28;20044;-69
2022/04/25 09:44:58;;;;;;;34.10;19.75;;;7.80;99.90;;;;;;5031168;28;20046;-67
2022/04/25 09:47:31;;;;;;;35.33;19.70;;;7.90;99.90;;;;;;5031577;28;20049;-67
2022/04/25 09:50:01;;;;;;;31.20;19.70;;;8.00;99.90;;;;;;5031069;28;20554;-67
2022/04/25 09:52:27;;;;;;;28.88;19.52;;;8.00;99.90;;;;;;5031344;28;20458;-68
2022/04/25 09:54:53;;;;;;;32.92;19.90;;;8.00;99.90;;;;;;5031344;28;20045;-67
2022/04/25 09:57:32;;;;;;;26.23;19.40;;;8.10;99.90;;;;;;5029632;28;20137;-67
2022/04/25 09:59:58;;;;;;;31.27;17.48;;;8.10;99.90;;;;;;5031083;28;20095;-67
2022/04/25 10:02:24;;;;;;;29.95;17.55;;;8.10;99.90;;;;;;5030975;28;20041;-67
2022/04/25 10:04:49;;;;;;;32.58;17.58;;;8.20;99.90;;;;;;5030929;28;20103;-67
2022/04/25 10:07:17;;;;;;;24.02;17.50;;;8.20;99.90;;;;;;5030340;28;20512;-67
2022/04/25 10:09:44;;;;;;;24.35;16.70;;;8.30;99.90;;;;;;5030202;28;20053;-68
2022/04/25 10:12:10;;;;;;;29.35;18.80;;;8.30;99.90;;;;;;5030427;28;20048;-67
2022/04/25 10:14:36;;;;;;;30.05;18.13;;;8.30;99.90;;;;;;5030033;28;20049;-67
2022/04/25 10:17:03;;;;;;;38.50;20.10;;;8.30;99.90;;;;;;5030251;28;20107;-67
2022/04/25 10:19:32;;;;;;;27.80;19.02;;;8.40;99.90;;;;;;5010872;28;20068;-67
2022/04/25 10:21:57;;;;;;;27.38;18.90;;;8.50;99.90;;;;;;5010927;28;20049;-67
2022/04/25 10:24:24;;;;;;;24.17;19.20;;;8.50;99.90;;;;;;5018167;28;20465;-67
2022/04/25 10:26:51;;;;;;;25.13;18.33;;;8.60;99.90;;;;;;5030085;28;20160;-67
2022/04/25 10:29:31;;;;;;;29.25;18.75;;;8.70;99.90;;;;;;5029184;28;20450;-67
2022/04/25 10:31:59;;;;;;;38.08;20.50;;;8.70;99.90;;;;;;5026304;28;20053;-67
2022/04/25 10:35:05;;;;;;;28.70;19.90;;;8.80;99.90;;;;;;5010691;28;20525;-67
2022/04/25 10:37:35;;;;;;;33.92;23.13;;;9.00;99.90;;;;;;5002590;28;20057;-67
2022/04/25 10:40:07;;;;;;;24.38;20.15;;;9.10;99.90;;;;;;4991688;28;20050;-67
2022/04/25 10:46:00;;;;;;;25.20;19.00;;;9.30;99.90;;;;;;5029799;28;20051;-67
2022/04/25 10:48:26;;;;;;;;;;;9.40;99.90;;;;;;5029367;28;20048;-67
2022/04/25 10:51:09;;;;;;;26.65;18.48;;;9.50;99.90;;;;;;5029908;28;19921;-67
2022/04/25 10:53:57;;;;;;;26.15;17.55;;;9.50;99.90;;;;;;5029712;28;20525;-66
2022/04/25 10:56:22;;;;;;;25.77;17.95;;;9.50;99.90;;;;;;5024818;28;20049;-66
2022/04/25 10:59:21;;;;;;;29.35;20.83;;;9.50;99.90;;;;;;5050166;28;20507;-67
2022/04/25 11:01:47;;;;;;;31.15;19.70;;;9.60;99.90;;;;;;5049538;28;20057;-67
2022/04/25 11:04:14;;;;;;;28.83;19.23;;;9.60;99.90;;;;;;5034363;28;20049;-67
2022/04/25 11:06:40;;;;;;;23.48;17.85;;;9.70;99.90;;;;;;5029610;28;20099;-67
2022/04/25 11:09:05;;;;;;;24.10;18.88;;;9.60;99.90;;;;;;5029589;28;20061;-67
2022/04/25 11:11:47;;;;;;;24.70;19.20;;;9.70;99.90;;;;;;5029574;28;20147;-67
2022/04/25 11:14:15;;;;;;;26.73;18.63;;;9.60;99.90;;;;;;5029833;28;20399;-67
2022/04/25 11:16:41;;;;;;;30.00;18.90;;;9.70;99.90;;;;;;5029455;28;20515;-67
2022/04/25 11:19:17;;;;;;;22.42;18.67;;;9.70;99.90;;;;;;5029558;28;20783;-67
2022/04/25 11:21:49;;;;;;;24.38;18.15;;;9.70;99.90;;;;;;5029504;28;20445;-66
2022/04/25 11:24:39;;;;;;;28.05;17.92;;;9.80;99.90;;;;;;5037405;28;20068;-67
2022/04/25 11:27:14;;;;;;;25.48;18.50;;;9.90;99.90;;;;;;5031586;28;20045;-66
2022/04/25 11:30:06;;;;;;;31.60;19.77;;;10.10;99.90;;;;;;5049050;28;20136;-67
2022/04/25 11:32:40;;;;;;;25.10;18.83;;;10.20;99.90;;;;;;5033378;28;20448;-66
2022/04/25 11:35:06;;;;;;;24.67;19.45;;;10.20;99.90;;;;;;5029229;28;20124;-67
2022/04/25 11:37:33;;;;;;;27.27;18.17;;;10.20;99.90;;;;;;5028620;28;20406;-67
2022/04/25 11:40:07;;;;;;;20.55;17.33;;;10.20;99.90;;;;;;5028996;28;20577;-67
2022/04/25 11:42:35;;;;;;;34.28;18.95;;;10.20;99.90;;;;;;5028756;28;20567;-67
2022/04/25 11:45:02;;;;;;;23.40;17.55;;;10.30;99.90;;;;;;5028958;28;20075;-67
2022/04/25 11:47:29;;;;;;;24.98;18.52;;;10.40;99.90;;;;;;5028759;28;20407;-67
2022/04/25 11:50:00;;;;;;;20.05;17.70;;;10.50;99.90;;;;;;5028929;28;20084;-67
2022/04/25 11:52:26;;;;;;;27.00;18.15;;;10.50;99.90;;;;;;5028521;28;20055;-67
2022/04/25 11:54:54;;;;;;;27.02;19.27;;;10.60;99.90;;;;;;5029388;28;20049;-67
2022/04/25 11:57:20;;;;;;;28.98;20.20;;;10.70;99.90;;;;;;5028664;28;20057;-67
2022/04/25 11:59:46;;;;;;;21.17;17.67;;;10.80;99.90;;;;;;5027193;28;20057;-66
2022/04/25 12:02:11;;;;;;;34.53;20.10;;;10.80;99.90;;;;;;5028798;28;20042;-66
2022/04/25 12:04:38;;;;;;;24.38;18.20;;;10.90;99.90;;;;;;5028355;28;20411;-67
2022/04/25 12:07:11;;;;;;;25.67;18.23;;;10.90;99.90;;;;;;5028487;28;20506;-67
2022/04/25 12:15:34;;;;;;;34.67;21.63;;;11.10;99.90;;;;;;5008873;28;20525;-67
2022/04/25 12:18:25;;;;;;;26.15;18.75;;;11.10;99.90;;;;;;5008517;28;20045;-67
2022/04/25 12:20:58;;;;;;;28.77;21.73;;;11.20;99.90;;;;;;5008756;28;20038;-67
2022/04/25 12:23:48;;;;;;;25.35;19.90;;;11.40;99.90;;;;;;5011824;28;20036;-66
2022/04/25 12:26:22;;;;;;;27.48;19.63;;;11.60;99.90;;;;;;5037042;28;20060;-67
2022/04/25 12:28:53;;;;;;;22.90;18.00;;;11.60;99.90;;;;;;5048231;28;20041;-67
2022/04/25 12:31:19;;;;;;;30.63;20.92;;;11.60;99.90;;;;;;5047730;28;20052;-67
2022/04/25 12:33:47;;;;;;;32.50;19.75;;;11.70;99.90;;;;;;5029067;28;20063;-67
2022/04/25 12:36:20;;;;;;;25.13;19.45;;;11.80;99.90;;;;;;5027889;28;20077;-67
2022/04/25 12:39:09;;;;;;;25.25;18.60;;;11.70;99.90;;;;;;5027929;28;20156;-67
2022/04/25 12:41:37;;;;;;;28.90;18.80;;;11.70;99.90;;;;;;5028111;28;20060;-66
2022/04/25 12:44:15;;;;;;;30.27;21.52;;;11.80;99.90;;;;;;5028078;28;20038;-67
2022/04/25 12:46:55;;;;;;;29.30;21.02;;;11.80;99.90;;;;;;5027535;28;20049;-67
2022/04/25 12:49:31;;;;;;;27.75;20.73;;;11.90;99.90;;;;;;5026628;28;20037;-67
2022/04/25 12:52:01;;;;;;;30.40;21.00;;;11.90;99.90;;;;;;5026981;28;20089;-66
2022/04/25 12:54:31;;;;;;;30.92;20.98;;;11.90;99.90;;;;;;5027937;28;20052;-67
2022/04/25 12:57:16;;;;;;;27.02;22.38;;;11.90;99.90;;;;;;5027858;28;20180;-67
2022/04/25 12:59:52;;;;;;;30.40;21.98;;;11.80;99.90;;;;;;5026481;28;20053;-66
2022/04/25 13:02:37;;;;;;;28.60;21.20;;;11.90;99.90;;;;;;5034464;28;20502;-67
2022/04/25 13:05:05;;;;;;;28.05;22.75;;;11.90;99.90;;;;;;5047301;28;20080;-67
2022/04/25 13:07:38;;;;;;;36.20;23.90;;;11.90;99.90;;;;;;5031816;28;20045;-67
2022/04/25 13:10:16;;;;;;;42.55;23.00;;;11.90;99.90;;;;;;5027637;28;20506;-67
2022/04/25 13:12:54;;;;;;;31.40;22.98;;;12.00;99.90;;;;;;5027255;28;20049;-67
2022/04/25 13:15:31;;;;;;;31.20;23.08;;;12.00;99.90;;;;;;5027180;28;20037;-67
2022/04/25 13:17:58;;;;;;;30.40;23.52;;;12.10;99.90;;;;;;5027589;28;20052;-67